Time;durP1;ratioP1;P1;durP2;ratioP2;P2;SDS_P1;SDS_P2;PMS_P1;PMS_P2;Temp;Humidity;BMP_temperature;BMP_pressure;BME280_temperature;BME280_humidity;BME280_pressure;Samples;Min_cycle;Max_cycle;Signal;HPM_P1;HPM_P2
2022/09/06 00:01:17;;;;;;;43.17;5.28;;;;;;;13.72;100.00;99667.19;5007142;28;20082;-88
2022/09/06 00:03:44;;;;;;;54.13;7.38;;;;;;;13.79;100.00;99655.25;5021388;28;20388;-86
2022/09/06 00:06:17;;;;;;;30.83;4.47;;;;;;;13.75;100.00;99637.00;5040388;28;20033;-87
2022/09/06 00:08:43;;;;;;;40.97;6.47;;;;;;;13.89;100.00;99657.41;5036672;28;20610;-87
2022/09/06 00:11:09;;;;;;;35.45;6.22;;;;;;;13.93;100.00;99653.22;5004868;28;20044;-85
2022/09/06 00:13:35;;;;;;;33.88;5.28;;;;;;;13.98;100.00;99650.69;5018112;28;20033;-85
2022/09/06 00:16:13;;;;;;;13.02;2.67;;;;;;;14.01;100.00;99644.81;5036341;28;20026;-84
2022/09/06 00:18:39;;;;;;;33.92;5.15;;;;;;;14.00;100.00;99664.81;5017175;28;20071;-87
2022/09/06 00:21:14;;;;;;;28.00;4.65;;;;;;;13.88;100.00;99654.97;5046065;28;20060;-87
2022/09/06 00:23:39;;;;;;;27.13;4.22;;;;;;;13.74;100.00;99647.00;5046535;28;20030;-83
2022/09/06 00:26:05;;;;;;;49.25;6.97;;;;;;;13.64;100.00;99644.78;5037470;28;20452;-91
2022/09/06 00:28:31;;;;;;;36.75;4.47;;;;;;;13.57;100.00;99645.91;5032433;28;20029;-89
2022/09/06 00:30:56;;;;;;;25.90;4.30;;;;;;;13.43;100.00;99636.28;4992725;28;20487;-85
2022/09/06 00:33:22;;;;;;;29.50;4.65;;;;;;;13.41;100.00;99639.19;4998272;28;20068;-87
2022/09/06 00:36:06;;;;;;;36.58;5.05;;;;;;;13.41;100.00;99637.31;5015944;28;20080;-89
2022/09/06 00:38:32;;;;;;;36.25;4.80;;;;;;;13.33;100.00;99643.00;5016721;28;20045;-91
2022/09/06 00:40:58;;;;;;;36.88;5.57;;;;;;;13.18;100.00;99637.94;5030872;28;20037;-91
2022/09/06 00:43:23;;;;;;;23.13;4.35;;;;;;;13.27;100.00;99653.88;5030609;28;20525;-89
2022/09/06 00:45:49;;;;;;;42.75;4.90;;;;;;;13.15;100.00;99643.75;4997588;28;20037;-89
2022/09/06 00:48:16;;;;;;;31.23;5.57;;;;;;;13.28;100.00;99663.63;5030496;28;20029;-88
2022/09/06 00:50:43;;;;;;;18.05;3.92;;;;;;;13.25;100.00;99653.22;5030450;28;20032;-87
2022/09/06 00:53:08;;;;;;;31.73;4.57;;;;;;;13.22;100.00;99650.97;5028692;28;20040;-89
2022/09/06 00:55:34;;;;;;;39.35;4.30;;;;;;;13.26;100.00;99646.78;5012926;28;20025;-87
2022/09/06 00:58:00;;;;;;;30.98;4.35;;;;;;;13.19;100.00;99654.94;5030268;28;20052;-89
2022/09/06 01:00:25;;;;;;;30.80;3.92;;;;;;;13.26;100.00;99662.97;5013364;28;20033;-88
2022/09/06 01:02:52;;;;;;;34.10;7.93;;;;;;;13.05;100.00;99627.25;5031419;28;20025;-86
2022/09/06 01:05:19;;;;;;;36.58;4.90;;;;;;;13.15;100.00;99654.56;5030387;28;20071;-86
2022/09/06 01:07:48;;;;;;;31.70;4.68;;;;;;;13.02;100.00;99637.63;5029459;28;20022;-84
2022/09/06 01:10:19;;;;;;;34.45;4.97;;;;;;;13.15;100.00;99670.75;5042261;28;20037;-86
2022/09/06 01:12:57;;;;;;;32.28;4.72;;;;;;;13.18;100.00;99674.88;5029304;28;20511;-88
2022/09/06 01:15:23;;;;;;;29.30;4.28;;;;;;;13.19;100.00;99671.97;5025056;28;20092;-88
2022/09/06 01:18:00;;;;;;;39.65;4.65;;;;;;;13.05;100.00;99639.91;5028514;28;20037;-87
2022/09/06 01:21:07;;;;;;;23.83;4.57;;;;;;;13.16;100.00;99660.78;4996250;28;20037;-87
2022/09/06 01:23:45;;;;;;;24.48;5.57;;;;;;;13.24;100.00;99667.78;5024377;28;20073;-87
2022/09/06 01:26:43;;;;;;;22.92;3.42;;;;;;;13.17;100.00;99657.84;5022332;28;20032;-88
2022/09/06 01:29:32;;;;;;;20.05;2.97;;;;;;;13.24;100.00;99646.19;5025621;28;20069;-85
2022/09/06 01:32:45;;;;;;;31.70;3.60;;;;;;;13.27;100.00;99643.91;5020111;28;20041;-86
2022/09/06 01:35:27;;;;;;;28.00;5.53;;;;;;;13.33;100.00;99645.69;5022592;28;20053;-87
2022/09/06 01:37:54;;;;;;;35.03;4.72;;;;;;;13.26;100.00;99646.78;5010708;28;20048;-87
2022/09/06 01:40:19;;;;;;;40.97;5.53;;;;;;;13.20;100.00;99643.94;5028732;28;20047;-88
2022/09/06 01:42:53;;;;;;;27.55;4.38;;;;;;;13.17;100.00;99651.63;5012287;28;20038;-88
2022/09/06 01:46:03;;;;;;;40.15;4.65;;;;;;;13.14;100.00;99661.00;4997260;28;20044;-86
2022/09/06 01:48:35;;;;;;;35.45;4.55;;;;;;;13.11;100.00;99652.50;5029097;28;20147;-86
2022/09/06 01:51:04;;;;;;;31.70;5.00;;;;;;;12.93;100.00;99631.69;5029066;28;20030;-86
2022/09/06 01:54:14;;;;;;;31.02;4.75;;;;;;;13.18;100.00;99664.09;5027904;28;20042;-88
2022/09/06 01:57:04;;;;;;;32.72;4.95;;;;;;;13.15;100.00;99664.50;5008316;28;20619;-86
2022/09/06 01:59:51;;;;;;;39.35;5.07;;;;;;;13.27;100.00;99673.59;5025851;28;20056;-85
2022/09/06 02:02:35;;;;;;;40.75;6.18;;;;;;;13.37;100.00;99656.91;5030357;28;20038;-87
2022/09/06 02:05:08;;;;;;;28.00;4.28;;;;;;;13.38;100.00;99658.53;5036129;28;20037;-85
2022/09/06 02:07:35;;;;;;;30.20;4.38;;;;;;;13.36;100.00;99633.63;5028880;28;20037;-85
2022/09/06 02:10:06;;;;;;;35.83;4.90;;;;;;;13.56;100.00;99639.69;5032246;28;20037;-88
2022/09/06 02:12:35;;;;;;;32.30;4.40;;;;;;;13.73;100.00;99658.81;5031911;28;20044;-88
2022/09/06 02:15:07;;;;;;;34.97;5.45;;;;;;;13.76;100.00;99653.00;5018320;28;20104;-86
2022/09/06 02:17:38;;;;;;;35.03;5.10;;;;;;;13.79;100.00;99655.25;5014583;28;20076;-87
2022/09/06 02:20:09;;;;;;;28.10;3.88;;;;;;;13.76;100.00;99638.66;5019007;28;20072;-85
2022/09/06 02:22:39;;;;;;;24.55;4.78;;;;;;;13.88;100.00;99639.56;5007713;28;20029;-87
2022/09/06 02:25:08;;;;;;;33.75;5.28;;;;;;;13.82;100.00;99640.47;5015592;28;20546;-86
2022/09/06 02:27:34;;;;;;;35.42;4.63;;;;;;;13.83;100.00;99642.13;5029355;28;20504;-88
2022/09/06 02:30:01;;;;;;;28.15;4.80;;;;;;;13.85;100.00;99621.09;5015545;28;20038;-88
2022/09/06 02:32:28;;;;;;;37.05;4.57;;;;;;;13.93;100.00;99628.91;5030812;28;20034;-89
2022/09/06 02:34:55;;;;;;;28.40;4.90;;;;;;;13.99;100.00;99638.81;5030125;28;20083;-90
2022/09/06 02:37:27;;;;;;;34.65;4.30;;;;;;;14.01;100.00;99638.59;5031713;28;20041;-87
2022/09/06 02:39:56;;;;;;;29.20;4.85;;;;;;;13.76;100.00;99604.38;5031623;28;20041;-87
2022/09/06 02:42:22;;;;;;;35.10;4.20;;;;;;;13.87;100.00;99619.00;5030876;28;20743;-87
2022/09/06 02:44:48;;;;;;;23.15;3.60;;;;;;;13.87;100.00;99618.19;5016003;28;20032;-86
2022/09/06 02:47:14;;;;;;;28.35;4.05;;;;;;;13.85;100.00;99615.69;5017128;28;20036;-86
2022/09/06 02:49:40;;;;;;;31.13;4.30;;;;;;;13.86;100.00;99611.94;5015234;28;20040;-87
2022/09/06 02:52:05;;;;;;;31.33;4.53;;;;;;;13.86;100.00;99622.75;5015806;28;20033;-85
2022/09/06 02:54:31;;;;;;;32.08;4.32;;;;;;;13.60;100.00;99592.28;5030299;28;20033;-88
2022/09/06 02:56:56;;;;;;;27.15;3.72;;;;;;;13.77;100.00;99624.94;5014228;28;20052;-85
2022/09/06 02:59:22;;;;;;;26.77;3.63;;;;;;;13.72;100.00;99623.94;5030552;28;20034;-87
2022/09/06 03:01:48;;;;;;;21.80;4.10;;;;;;;13.74;100.00;99613.75;5015893;28;20144;-86
2022/09/06 03:04:14;;;;;;;28.75;4.32;;;;;;;13.77;100.00;99619.53;5032447;28;20041;-86
2022/09/06 03:06:39;;;;;;;28.42;3.80;;;;;;;13.91;100.00;99622.06;4999136;28;20532;-88
2022/09/06 03:09:05;;;;;;;23.42;3.88;;;;;;;14.02;100.00;99637.53;5013382;28;20037;-88
2022/09/06 03:11:31;;;;;;;24.63;4.20;;;;;;;13.99;100.00;99622.59;5013514;28;20041;-87
2022/09/06 03:13:56;;;;;;;27.75;4.15;;;;;;;13.97;100.00;99619.31;5030322;28;20167;-88
2022/09/06 03:16:22;;;;;;;22.92;4.28;;;;;;;13.94;100.00;99598.13;5033669;28;20053;-85
2022/09/06 03:18:48;;;;;;;29.38;4.38;;;;;;;14.02;100.00;99615.91;5040502;28;20045;-89
2022/09/06 03:21:14;;;;;;;27.90;4.68;;;;;;;13.87;100.00;99616.31;5041018;28;20044;-87
2022/09/06 03:23:40;;;;;;;23.85;4.07;;;;;;;13.83;100.00;99620.50;5041042;28;20057;-88
2022/09/06 03:26:06;;;;;;;30.63;4.03;;;;;;;13.82;100.00;99611.56;5044492;28;20029;-84
2022/09/06 03:28:34;;;;;;;21.08;4.95;;;;;;;13.77;100.00;99607.91;5048012;28;20052;-85
2022/09/06 03:31:00;;;;;;;29.10;4.38;;;;;;;13.71;100.00;99614.22;5047396;28;20116;-86
2022/09/06 03:33:25;;;;;;;25.40;4.00;;;;;;;13.70;100.00;99609.84;5040092;28;20033;-86
2022/09/06 03:36:01;;;;;;;32.30;5.20;;;;;;;13.73;100.00;99606.69;5014456;28;20037;-87
2022/09/06 03:38:28;;;;;;;33.28;5.85;;;;;;;13.75;100.00;99601.88;5014479;28;20080;-87
2022/09/06 03:40:54;;;;;;;25.17;3.80;;;;;;;13.81;100.00;99604.53;5029968;28;20136;-87
2022/09/06 03:43:21;;;;;;;33.40;4.18;;;;;;;13.80;100.00;99604.75;5013411;28;20029;-88
2022/09/06 03:45:49;;;;;;;28.80;4.03;;;;;;;13.85;100.00;99615.69;5014801;28;20056;-87
2022/09/06 03:48:18;;;;;;;25.27;4.85;;;;;;;13.76;100.00;99609.78;5032224;28;20042;-93
2022/09/06 03:50:48;;;;;;;28.05;3.97;;;;;;;13.69;100.00;99611.72;5026736;28;20480;-88
2022/09/06 03:53:15;;;;;;;34.53;4.40;;;;;;;13.63;100.00;99610.75;5031100;28;20029;-87
2022/09/06 03:55:45;;;;;;;25.45;3.78;;;;;;;13.59;100.00;99623.03;5018580;28;20030;-89
2022/09/06 03:58:11;;;;;;;27.25;3.95;;;;;;;13.56;100.00;99630.75;5029917;28;20053;-89
2022/09/06 04:00:37;;;;;;;29.35;3.90;;;;;;;13.39;100.00;99600.81;4997469;28;20034;-88
2022/09/06 04:03:02;;;;;;;28.05;3.92;;;;;;;13.51;100.00;99626.03;5029834;28;20046;-88
2022/09/06 04:05:28;;;;;;;22.63;3.83;;;;;;;13.45;100.00;99621.53;5029027;28;20082;-90
2022/09/06 04:07:54;;;;;;;33.95;5.03;;;;;;;13.46;100.00;99622.34;5028970;28;20042;-92
2022/09/06 04:10:19;;;;;;;22.08;4.07;;;;;;;13.48;100.00;99631.88;5013999;28;20064;-89
2022/09/06 04:12:45;;;;;;;36.28;4.82;;;;;;;13.45;100.00;99647.69;5028995;28;20040;-88
2022/09/06 04:15:11;;;;;;;29.77;4.38;;;;;;;13.38;100.00;99626.16;5027872;28;20034;-86
2022/09/06 04:17:37;;;;;;;31.67;4.35;;;;;;;13.32;100.00;99635.97;5012346;28;20443;-86
2022/09/06 04:20:03;;;;;;;19.65;4.07;;;;;;;13.30;100.00;99626.44;5028432;28;20090;-84
2022/09/06 04:22:29;;;;;;;1.92;1.02;;;;;;;13.18;100.00;99615.50;5033942;28;20039;-85
2022/09/06 04:24:59;;;;;;;0.20;0.20;;;;;;;13.17;100.00;99611.97;5028565;28;20129;-88
2022/09/06 04:27:25;;;;;;;0.20;0.20;;;;;;;13.18;100.00;99620.91;5015907;28;20024;-87
2022/09/06 04:29:51;;;;;;;0.20;0.20;;;;;;;13.12;100.00;99621.78;5013649;28;20044;-88
2022/09/06 04:32:16;;;;;;;0.45;0.45;;;;;;;13.10;100.00;99616.59;5011140;28;20132;-90
2022/09/06 04:34:42;;;;;;;0.55;0.45;;;;;;;12.95;100.00;99603.44;5013985;28;20116;-87
2022/09/06 04:37:08;;;;;;;0.30;0.30;;;;;;;12.92;100.00;99601.19;5027713;28;20510;-88
2022/09/06 04:39:33;;;;;;;0.20;0.20;;;;;;;12.98;100.00;99600.28;5030574;28;20529;-89
2022/09/06 04:41:59;;;;;;;1.08;0.82;;;;;;;13.02;100.00;99606.09;5032189;28;20029;-89
2022/09/06 04:44:25;;;;;;;0.30;0.30;;;;;;;13.15;100.00;99610.53;5029826;28;20045;-90
2022/09/06 04:47:04;;;;;;;0.30;0.30;;;;;;;13.19;100.00;99609.88;5015972;28;20044;-90
2022/09/06 04:49:30;;;;;;;0.20;0.20;;;;;;;13.21;100.00;99604.25;5013104;28;20091;-90
2022/09/06 04:51:56;;;;;;;0.30;0.30;;;;;;;13.22;100.00;99602.38;4997836;28;20426;-86
2022/09/06 04:54:21;;;;;;;0.30;0.30;;;;;;;13.22;100.00;99603.22;5029454;28;20064;-92
2022/09/06 04:56:47;;;;;;;0.20;0.20;;;;;;;13.23;100.00;99606.72;5031625;28;20484;-91
2022/09/06 04:59:12;;;;;;;0.47;0.47;;;;;;;13.28;100.00;99621.25;5031402;28;20083;-90
2022/09/06 05:01:38;;;;;;;0.28;0.28;;;;;;;13.25;100.00;99599.25;5030108;28;20029;-88
2022/09/06 05:04:04;;;;;;;0.40;0.40;;;;;;;13.26;100.00;99607.16;5030786;28;20041;-91
2022/09/06 05:06:29;;;;;;;0.30;0.30;;;;;;;13.28;100.00;99610.44;5030666;28;20479;-84
2022/09/06 05:08:55;;;;;;;0.22;0.22;;;;;;;13.24;100.00;99620.00;5048415;28;20034;-88
2022/09/06 05:11:21;;;;;;;0.30;0.30;;;;;;;13.15;100.00;99605.13;5017679;28;20033;-87
2022/09/06 05:13:48;;;;;;;0.30;0.30;;;;;;;13.13;100.00;99618.88;5013036;28;20112;-87
2022/09/06 05:16:18;;;;;;;0.20;0.20;;;;;;;13.05;100.00;99619.13;5013691;28;20088;-90
2022/09/06 05:18:46;;;;;;;0.20;0.20;;;;;;;13.11;100.00;99626.34;5035359;28;20491;-89
2022/09/06 05:21:11;;;;;;;0.30;0.30;;;;;;;13.13;100.00;99628.84;5026005;28;20030;-90
2022/09/06 05:23:37;;;;;;;0.20;0.20;;;;;;;13.12;100.00;99633.38;5026473;28;20022;-86
2022/09/06 05:26:03;;;;;;;0.30;0.30;;;;;;;13.11;100.00;99629.03;5000188;28;20079;-88
2022/09/06 05:28:28;;;;;;;0.63;0.63;;;;;;;13.11;100.00;99618.25;5031696;28;20124;-90
2022/09/06 05:31:22;;;;;;;0.22;0.22;;;;;;;13.11;100.00;99625.53;5030015;28;20079;-91
2022/09/06 05:33:48;;;;;;;0.30;0.30;;;;;;;13.08;100.00;99613.28;4997390;28;20064;-90
2022/09/06 05:36:13;;;;;;;0.30;0.30;;;;;;;13.09;100.00;99616.81;4993365;28;20111;-88
2022/09/06 05:38:39;;;;;;;0.22;0.22;;;;;;;13.14;100.00;99623.19;5028204;28;20037;-92
2022/09/06 05:41:05;;;;;;;0.22;0.22;;;;;;;13.08;100.00;99616.00;5028847;28;20033;-91
2022/09/06 05:43:30;;;;;;;0.30;0.30;;;;;;;13.13;100.00;99623.44;5035102;28;20079;-91
2022/09/06 05:45:56;;;;;;;0.30;0.30;;;;;;;13.09;100.00;99612.25;5030428;28;20045;-89
2022/09/06 05:48:22;;;;;;;0.30;0.30;;;;;;;13.05;100.00;99600.25;5016472;28;20072;-92
2022/09/06 05:50:58;;;;;;;0.30;0.30;;;;;;;13.10;100.00;99605.00;5035091;28;20032;-90
2022/09/06 05:53:24;;;;;;;0.30;0.30;;;;;;;13.18;100.00;99637.09;5014673;28;20038;-92
2022/09/06 05:55:49;;;;;;;0.30;0.30;;;;;;;13.23;100.00;99644.50;5020584;28;20037;-91
2022/09/06 05:58:15;;;;;;;0.28;0.28;;;;;;;13.25;100.00;99643.25;5015015;28;20373;-89
2022/09/06 06:00:41;;;;;;;0.30;0.30;;;;;;;13.24;100.00;99646.19;5034803;28;20490;-91
2022/09/06 06:03:09;;;;;;;0.30;0.30;;;;;;;13.19;100.00;99644.13;5035188;28;20394;-92
2022/09/06 06:05:34;;;;;;;0.30;0.30;;;;;;;13.08;100.00;99626.78;5015611;28;20030;-88
2022/09/06 06:08:00;;;;;;;0.20;0.20;;;;;;;13.13;100.00;99637.75;5031922;28;20037;-94
2022/09/06 06:10:26;;;;;;;0.30;0.30;;;;;;;13.14;100.00;99635.88;5033408;28;20044;-90
2022/09/06 06:12:52;;;;;;;0.20;0.20;;;;;;;13.10;100.00;99623.88;5034077;28;20037;-90
2022/09/06 06:15:17;;;;;;;0.30;0.30;;;;;;;13.11;100.00;99617.44;5030829;28;20030;-90
2022/09/06 06:17:43;;;;;;;0.30;0.30;;;;;;;13.25;100.00;99632.44;5017024;28;20041;-90
2022/09/06 06:20:08;;;;;;;0.30;0.30;;;;;;;13.26;100.00;99647.66;5034285;28;20040;-89
2022/09/06 06:22:34;;;;;;;0.30;0.30;;;;;;;13.24;100.00;99624.59;5033097;28;20088;-90
2022/09/06 06:25:00;;;;;;;0.30;0.30;;;;;;;13.30;100.00;99635.34;5016427;28;20063;-88
2022/09/06 06:27:26;;;;;;;0.30;0.30;;;;;;;13.37;100.00;99638.81;5037355;28;20029;-91
2022/09/06 06:29:55;;;;;;;0.30;0.30;;;;;;;13.34;100.00;99627.66;5043472;28;20056;-88
2022/09/06 06:32:20;;;;;;;0.30;0.30;;;;;;;13.49;100.00;99643.50;5035288;28;20097;-88
2022/09/06 06:34:47;;;;;;;0.30;0.30;;;;;;;13.57;100.00;99651.31;5032290;28;20502;-88
2022/09/06 06:37:12;;;;;;;0.30;0.30;;;;;;;13.64;100.00;99646.69;4996421;28;20111;-89
2022/09/06 06:39:41;;;;;;;0.20;0.20;;;;;;;13.69;100.00;99654.94;5030377;28;20479;-88
2022/09/06 06:42:07;;;;;;;0.30;0.30;;;;;;;13.66;100.00;99638.38;5033391;28;20041;-89
2022/09/06 06:44:33;;;;;;;0.30;0.30;;;;;;;13.70;100.00;99644.94;5033027;28;20033;-89
2022/09/06 06:47:01;;;;;;;0.50;0.50;;;;;;;13.73;100.00;99649.91;5001106;28;20099;-89
2022/09/06 06:49:28;;;;;;;0.30;0.30;;;;;;;13.73;100.00;99644.50;5031393;28;20451;-90
2022/09/06 06:51:57;;;;;;;0.25;0.25;;;;;;;13.69;100.00;99630.63;5016907;28;20037;-87
2022/09/06 06:54:22;;;;;;;0.30;0.30;;;;;;;13.72;100.00;99637.47;4999648;28;20037;-89
2022/09/06 06:56:48;;;;;;;0.20;0.20;;;;;;;13.62;100.00;99617.19;5034089;28;20037;-89
2022/09/06 06:59:13;;;;;;;0.30;0.30;;;;;;;13.71;100.00;99630.41;5034049;28;20095;-91
2022/09/06 07:01:39;;;;;;;0.30;0.30;;;;;;;13.73;100.00;99628.28;5033776;28;20029;-90
2022/09/06 07:04:17;;;;;;;0.30;0.30;;;;;;;13.71;100.00;99625.00;5033322;28;20095;-89
2022/09/06 07:06:54;;;;;;;0.30;0.30;;;;;;;13.72;100.00;99630.19;5025804;28;20307;-90
2022/09/06 07:09:20;;;;;;;0.30;0.30;;;;;;;13.64;100.00;99616.97;5005415;28;20038;-88
2022/09/06 07:11:47;;;;;;;0.30;0.30;;;;;;;13.66;100.00;99628.38;5000310;28;20416;-90
2022/09/06 07:14:14;;;;;;;0.35;0.35;;;;;;;13.60;100.00;99605.78;5028794;28;20471;-90
2022/09/06 07:16:41;;;;;;;0.22;0.22;;;;;;;13.70;100.00;99620.63;5032452;28;20075;-87
2022/09/06 07:19:07;;;;;;;0.30;0.30;;;;;;;13.56;100.00;99604.56;5015715;28;20033;-87
2022/09/06 07:21:32;;;;;;;0.30;0.30;;;;;;;13.69;100.00;99622.53;5015990;28;20036;-89
2022/09/06 07:23:58;;;;;;;0.30;0.30;;;;;;;13.67;100.00;99619.22;5030235;28;20047;-88
2022/09/06 07:26:25;;;;;;;0.30;0.30;;;;;;;13.68;100.00;99618.19;5032294;28;20044;-87
2022/09/06 07:28:52;;;;;;;0.30;0.30;;;;;;;13.81;100.00;99630.69;4999540;28;20538;-88
2022/09/06 07:31:18;;;;;;;0.30;0.30;;;;;;;13.91;100.00;99628.31;5015140;28;20033;-87
2022/09/06 07:33:44;;;;;;;0.30;0.30;;;;;;;14.06;100.00;99631.44;5031810;28;20051;-89
2022/09/06 07:36:10;;;;;;;0.35;0.35;;;;;;;14.25;100.00;99637.66;5032847;28;20110;-88
2022/09/06 07:38:36;;;;;;;0.30;0.30;;;;;;;14.43;100.00;99638.69;5023313;28;20033;-90
2022/09/06 07:41:07;;;;;;;0.40;0.40;;;;;;;14.50;100.00;99618.63;4996702;28;20103;-90
2022/09/06 07:43:33;;;;;;;0.30;0.30;;;;;;;14.75;100.00;99633.91;5015227;28;20031;-89
2022/09/06 07:46:00;;;;;;;0.30;0.30;;;;;;;14.89;100.00;99632.66;5032349;28;20037;-90
2022/09/06 07:48:33;;;;;;;0.30;0.30;;;;;;;15.04;100.00;99615.16;5001104;28;20090;-89
2022/09/06 07:51:18;;;;;;;0.30;0.30;;;;;;;15.21;100.00;99623.41;5030759;28;20132;-90
2022/09/06 07:53:49;;;;;;;0.30;0.30;;;;;;;15.17;100.00;99629.28;5036860;28;20044;-87
2022/09/06 07:56:15;;;;;;;0.28;0.28;;;;;;;15.08;100.00;99625.28;5037340;28;20045;-89
2022/09/06 07:58:43;;;;;;;0.30;0.30;;;;;;;14.95;100.00;99625.47;5013728;28;20056;-92
2022/09/06 08:01:18;;;;;;;0.30;0.30;;;;;;;14.78;100.00;99616.38;5028848;28;20029;-89
2022/09/06 08:03:47;;;;;;;0.30;0.30;;;;;;;14.73;100.00;99626.00;5008177;28;20037;-90
2022/09/06 08:06:13;;;;;;;0.30;0.30;;;;;;;14.54;100.00;99608.19;5025607;28;20041;-90
2022/09/06 08:08:44;;;;;;;0.30;0.30;;;;;;;14.70;100.00;99648.13;5011177;28;20034;-89
2022/09/06 08:11:10;;;;;;;0.40;0.40;;;;;;;14.86;100.00;99635.81;5030862;28;20041;-88
2022/09/06 08:13:36;;;;;;;0.30;0.30;;;;;;;15.01;100.00;99640.00;5026422;28;20403;-91
2022/09/06 08:16:04;;;;;;;0.30;0.30;;;;;;;14.93;100.00;99625.72;5014876;28;20394;-90
2022/09/06 08:18:30;;;;;;;0.30;0.30;;;;;;;15.06;100.00;99627.41;5030158;28;20366;-88
2022/09/06 08:21:07;;;;;;;0.30;0.30;;;;;;;15.38;100.00;99630.63;4997757;28;20091;-88
2022/09/06 08:23:34;;;;;;;0.40;0.40;;;;;;;15.77;100.00;99652.69;5028895;28;20438;-93
2022/09/06 08:25:59;;;;;;;0.40;0.40;;;;;;;16.56;100.00;99641.25;4996584;28;20067;-90
2022/09/06 08:28:25;;;;;;;0.40;0.40;;;;;;;17.32;100.00;99638.28;5026799;28;20060;-93
2022/09/06 08:30:52;;;;;;;0.50;0.50;;;;;;;18.55;100.00;99631.75;5032097;28;20095;-92
2022/09/06 08:33:20;;;;;;;0.40;0.40;;;;;;;19.87;100.00;99632.09;5029019;28;20037;-88
2022/09/06 08:35:57;;;;;;;0.52;0.52;;;;;;;21.38;95.44;99641.22;5011516;28;20038;-93
2022/09/06 08:38:23;;;;;;;0.50;0.50;;;;;;;22.13;89.03;99642.16;5013342;28;20044;-91
2022/09/06 08:40:53;;;;;;;0.40;0.40;;;;;;;21.75;90.40;99640.88;4993749;28;20049;-93
2022/09/06 08:43:21;;;;;;;0.63;0.63;;;;;;;23.10;83.65;99615.34;4994358;28;20053;-89
2022/09/06 08:45:49;;;;;;;0.60;0.60;;;;;;;23.67;79.97;99639.22;4997672;28;20294;-91
2022/09/06 08:48:15;;;;;;;0.40;0.40;;;;;;;23.95;81.53;99642.28;5030247;28;20037;-90
2022/09/06 08:50:46;;;;;;;0.30;0.30;;;;;;;22.20;87.62;99630.94;5029827;28;20037;-91
2022/09/06 08:53:18;;;;;;;0.30;0.30;;;;;;;20.84;93.03;99631.63;5036294;28;20595;-88
2022/09/06 08:56:19;;;;;;;0.40;0.40;;;;;;;20.17;99.44;99642.31;5039364;28;20474;-92
2022/09/06 08:59:00;;;;;;;0.35;0.35;;;;;;;19.41;100.00;99625.50;5024963;28;20026;-89
2022/09/06 09:01:36;;;;;;;0.30;0.30;;;;;;;19.06;100.00;99641.28;5058566;28;20097;-90
2022/09/06 09:04:04;;;;;;;0.60;0.60;;;;;;;19.14;100.00;99631.00;5026482;28;20045;-90
2022/09/06 09:06:31;;;;;;;0.30;0.30;;;;;;;18.82;100.00;99624.47;4999061;28;20071;-89
2022/09/06 09:09:06;;;;;;;1.85;1.10;;;;;;;19.02;100.00;99626.53;5015587;28;20119;-90
2022/09/06 09:11:34;;;;;;;0.35;0.30;;;;;;;18.97;100.00;99637.38;4999671;28;20041;-91
2022/09/06 09:14:03;;;;;;;0.45;0.45;;;;;;;19.46;100.00;99634.53;5034486;28;20130;-87
2022/09/06 09:16:29;;;;;;;0.55;0.55;;;;;;;19.42;99.35;99625.22;5017541;28;20041;-87
2022/09/06 09:18:57;;;;;;;3.10;1.55;;;;;;;19.08;100.00;99627.44;5045376;28;20025;-88
2022/09/06 09:21:27;;;;;;;0.30;0.30;;;;;;;18.67;100.00;99618.81;5012890;28;20400;-91
2022/09/06 09:23:58;;;;;;;1.00;0.50;;;;;;;18.36;100.00;99615.78;4999334;28;20505;-89
2022/09/06 09:26:26;;;;;;;0.35;0.35;;;;;;;17.95;100.00;99604.41;5012781;28;20112;-91
2022/09/06 09:29:10;;;;;;;1.88;0.90;;;;;;;17.72;100.00;99616.31;5010840;28;20567;-89
2022/09/06 09:31:41;;;;;;;0.40;0.40;;;;;;;17.64;100.00;99618.63;5011138;28;20038;-88
2022/09/06 09:34:12;;;;;;;1.55;0.98;;;;;;;17.47;100.00;99608.63;5029897;28;20037;-87
2022/09/06 09:36:44;;;;;;;14.27;3.17;;;;;;;17.40;100.00;99616.13;5029854;28;20037;-92
2022/09/06 09:39:14;;;;;;;13.40;4.03;;;;;;;17.38;100.00;99612.81;5011884;28;20466;-89
2022/09/06 09:41:41;;;;;;;9.88;3.13;;;;;;;17.42;100.00;99618.59;4999361;28;20494;-91
2022/09/06 09:44:17;;;;;;;5.32;2.00;;;;;;;17.49;100.00;99611.91;5007454;28;20144;-88
2022/09/06 09:46:42;;;;;;;20.15;6.95;;;;;;;17.65;100.00;99606.69;5013734;28;20042;-89
2022/09/06 09:49:14;;;;;;;7.57;2.53;;;;;;;17.78;100.00;99606.31;5029950;28;20383;-89
2022/09/06 09:52:02;;;;;;;16.10;4.90;;;;;;;17.85;100.00;99617.88;5017302;28;20033;-89
2022/09/06 09:54:34;;;;;;;15.23;3.65;;;;;;;17.80;100.00;99618.63;5028428;28;20040;-88
2022/09/06 09:56:59;;;;;;;13.93;2.35;;;;;;;17.76;100.00;99625.63;5010477;28;20033;-88
2022/09/06 09:59:37;;;;;;;10.48;3.75;;;;;;;17.70;100.00;99628.50;5017346;28;20047;-91
2022/09/06 10:02:37;;;;;;;10.63;2.20;;;;;;;17.57;100.00;99610.66;5029206;28;20467;-90
2022/09/06 10:05:12;;;;;;;5.88;1.60;;;;;;;17.44;100.00;99621.88;5015018;28;20033;-88
2022/09/06 10:07:50;;;;;;;15.82;2.90;;;;;;;17.29;100.00;99615.13;5014191;28;20034;-88
2022/09/06 10:10:22;;;;;;;14.18;4.38;;;;;;;17.22;100.00;99632.66;5029282;28;20382;-88
2022/09/06 10:13:10;;;;;;;10.38;2.72;;;;;;;17.18;100.00;99629.63;5026733;28;20037;-89
2022/09/06 10:15:42;;;;;;;12.88;2.50;;;;;;;16.85;100.00;99590.50;5035187;28;20041;-90
2022/09/06 10:18:31;;;;;;;20.35;3.30;;;;;;;16.59;100.00;99632.66;4997721;28;20128;-92
2022/09/06 10:21:04;;;;;;;26.95;3.63;;;;;;;16.34;100.00;99624.00;5003129;28;20033;-90
2022/09/06 10:24:02;;;;;;;11.13;3.37;;;;;;;16.42;100.00;99626.34;5014538;28;20034;-91
2022/09/06 10:26:49;;;;;;;15.77;5.13;;;;;;;16.55;100.00;99615.19;5021349;28;20282;-90
2022/09/06 10:29:28;;;;;;;12.90;2.80;;;;;;;16.71;100.00;99627.16;5032651;28;20025;-92
2022/09/06 10:32:41;;;;;;;13.63;4.32;;;;;;;17.57;100.00;99622.38;5020511;28;20033;-86
2022/09/06 10:35:34;;;;;;;12.38;2.95;;;;;;;18.46;100.00;99615.88;5026939;28;20097;-90
2022/09/06 10:38:34;;;;;;;10.15;1.90;;;;;;;18.80;100.00;99632.06;5036377;28;20033;-78
2022/09/06 10:41:33;;;;;;;7.63;2.72;;;;;;;19.25;100.00;99625.38;5015051;28;20064;-77
2022/09/06 10:44:28;;;;;;;9.27;2.60;;;;;;;19.60;100.00;99623.97;4993024;28;20033;-76
2022/09/06 10:47:16;;;;;;;12.77;2.22;;;;;;;19.30;100.00;99610.97;5032008;28;20094;-78
2022/09/06 10:49:48;;;;;;;4.32;1.83;;;;;;;19.27;100.00;99612.31;5001023;28;20053;-78
2022/09/06 10:52:36;;;;;;;11.40;1.88;;;;;;;18.97;100.00;99615.59;5019914;28;20411;-78
2022/09/06 10:55:04;;;;;;;4.45;1.55;;;;;;;18.84;100.00;99618.75;4998771;28;20495;-79
2022/09/06 10:57:36;;;;;;;8.43;2.15;;;;;;;18.82;100.00;99616.28;4999761;28;20041;-78
2022/09/06 11:00:11;;;;;;;10.35;2.05;;;;;;;18.65;100.00;99599.19;5036264;28;20040;-77
2022/09/06 11:02:59;;;;;;;8.48;1.75;;;;;;;18.69;100.00;99616.69;5017341;28;20037;-76
2022/09/06 11:05:32;;;;;;;6.40;1.85;;;;;;;18.60;100.00;99610.03;5015728;28;20029;-78
2022/09/06 11:08:28;;;;;;;9.05;2.90;;;;;;;18.34;100.00;99622.56;4993264;28;20498;-78
2022/09/06 11:10:54;;;;;;;7.93;2.00;;;;;;;18.17;100.00;99618.00;5000385;28;20041;-78
2022/09/06 11:13:26;;;;;;;6.63;1.73;;;;;;;18.21;100.00;99618.34;5021765;28;20037;-76
2022/09/06 11:16:13;;;;;;;13.50;3.42;;;;;;;18.35;100.00;99630.47;4999418;28;20029;-76
2022/09/06 11:18:55;;;;;;;10.00;2.20;;;;;;;18.45;100.00;99621.59;5015289;28;20041;-78
2022/09/06 11:21:43;;;;;;;7.82;1.40;;;;;;;18.62;100.00;99614.16;4998639;28;20068;-77
2022/09/06 11:24:17;;;;;;;8.60;1.73;;;;;;;18.76;100.00;99621.94;5027156;28;20045;-77
2022/09/06 11:27:04;;;;;;;7.90;2.47;;;;;;;18.91;100.00;99618.53;5007194;28;20091;-76
2022/09/06 11:29:31;;;;;;;15.20;5.78;;;;;;;19.00;100.00;99615.09;5013406;28;20025;-78
2022/09/06 11:32:00;;;;;;;9.43;3.83;;;;;;;19.27;100.00;99617.75;5018547;28;20041;-79
2022/09/06 11:34:31;;;;;;;11.20;4.35;;;;;;;19.31;100.00;99601.69;5015301;28;20124;-78
2022/09/06 11:37:07;;;;;;;6.05;1.70;;;;;;;19.49;100.00;99616.81;4999568;28;20025;-79
2022/09/06 11:39:41;;;;;;;8.45;2.50;;;;;;;19.13;100.00;99574.84;5008260;28;20569;-78